createdAt,value
2018-06-02T00:00:41.717Z,27.33
2018-06-02T00:03:09.992Z,27.60
2018-06-02T00:05:37.527Z,22.20
2018-06-02T00:08:05.147Z,27.43
2018-06-02T00:10:32.760Z,32.47
2018-06-02T00:13:00.606Z,38.80
2018-06-02T00:15:28.134Z,27.10
2018-06-02T00:17:55.660Z,26.63
2018-06-02T00:20:23.319Z,24.30
2018-06-02T00:22:50.896Z,24.70
2018-06-02T00:25:18.888Z,24.57
2018-06-02T00:27:46.406Z,24.33
2018-06-02T00:30:13.938Z,26.17
2018-06-02T00:32:41.523Z,28.37
2018-06-02T00:35:09.253Z,27.93
2018-06-02T00:37:36.778Z,29.10
2018-06-02T00:40:04.290Z,31.57
2018-06-02T00:42:31.826Z,31.10
2018-06-02T00:44:59.391Z,32.97
2018-06-02T00:47:26.913Z,34.73
2018-06-02T00:49:54.425Z,31.17
2018-06-02T00:52:22.110Z,29.30
2018-06-02T00:55:01.494Z,30.90
2018-06-02T00:57:29.151Z,31.20
2018-06-02T00:59:56.721Z,31.00
2018-06-02T01:02:24.259Z,31.57
2018-06-02T01:04:52.157Z,30.57
2018-06-02T01:07:19.730Z,32.37
2018-06-02T01:09:47.260Z,33.10
2018-06-02T01:12:14.773Z,35.47
2018-06-02T01:14:42.311Z,32.07
2018-06-02T01:17:09.892Z,32.23
2018-06-02T01:19:37.444Z,32.60
2018-06-02T01:22:05.030Z,32.13
2018-06-02T01:24:32.765Z,32.53
2018-06-02T01:27:00.299Z,33.20
2018-06-02T01:29:28.006Z,32.73
2018-06-02T01:31:55.771Z,33.30
2018-06-02T01:34:23.327Z,33.77
2018-06-02T01:36:50.851Z,33.90
2018-06-02T01:39:18.561Z,35.27
2018-06-02T01:41:46.079Z,35.17
2018-06-02T01:44:13.599Z,34.90
2018-06-02T01:46:41.265Z,37.10
2018-06-02T01:49:08.775Z,35.53
2018-06-02T01:51:36.454Z,37.83
2018-06-02T01:54:04.013Z,38.13
2018-06-02T01:56:31.577Z,37.63
2018-06-02T01:58:59.136Z,37.40
2018-06-02T02:01:26.923Z,34.10
2018-06-02T02:03:54.502Z,36.40
2018-06-02T02:06:22.258Z,39.13
2018-06-02T02:08:49.928Z,33.93
2018-06-02T02:11:17.435Z,35.60
2018-06-02T02:13:44.968Z,36.03
2018-06-02T02:16:13.098Z,37.77
2018-06-02T02:18:40.732Z,37.07
2018-06-02T02:21:08.270Z,36.73
2018-06-02T02:23:35.848Z,36.13
2018-06-02T02:26:03.340Z,37.80
2018-06-02T02:28:31.649Z,38.20
2018-06-02T02:30:59.171Z,38.03
2018-06-02T02:33:27.533Z,37.27
2018-06-02T02:35:55.062Z,36.57
2018-06-02T02:38:22.789Z,36.87
2018-06-02T02:40:51.068Z,38.17
2018-06-02T02:43:18.698Z,36.33
2018-06-02T02:45:46.491Z,36.47
2018-06-02T02:48:14.010Z,37.60
2018-06-02T02:50:41.684Z,37.50
2018-06-02T02:53:09.332Z,37.90
2018-06-02T02:55:36.896Z,36.67
2018-06-02T02:58:04.751Z,37.20
2018-06-02T03:00:32.459Z,36.77
2018-06-02T03:02:59.987Z,36.30
2018-06-02T03:05:28.358Z,36.63
2018-06-02T03:07:55.873Z,38.80
2018-06-02T03:10:23.378Z,37.77
2018-06-02T03:12:50.891Z,36.27
2018-06-02T03:15:18.480Z,35.90
2018-06-02T03:17:46.561Z,36.33
2018-06-02T03:20:14.128Z,37.20
2018-06-02T03:22:41.656Z,36.67
2018-06-02T03:25:10.021Z,36.27
2018-06-02T03:27:37.676Z,35.30
2018-06-02T03:30:05.189Z,38.43
2018-06-02T03:32:32.708Z,43.47
2018-06-02T03:35:00.682Z,37.70
2018-06-02T03:37:28.207Z,38.77
2018-06-02T03:39:55.819Z,37.77
2018-06-02T03:42:23.311Z,35.90
2018-06-02T03:44:51.642Z,36.93
2018-06-02T03:47:19.160Z,36.00
2018-06-02T03:49:47.334Z,36.87
2018-06-02T03:52:14.903Z,36.13
2018-06-02T03:54:43.224Z,35.43
2018-06-02T03:57:11.090Z,36.67
2018-06-02T03:59:38.581Z,36.00
2018-06-02T04:02:06.104Z,36.60
2018-06-02T04:04:34.070Z,36.37
2018-06-02T04:07:01.603Z,37.20
2018-06-02T04:09:29.104Z,35.33
2018-06-02T04:11:56.648Z,36.13
2018-06-02T04:14:24.196Z,35.63
2018-06-02T04:16:51.836Z,35.43
2018-06-02T04:19:19.373Z,35.03
2018-06-02T04:21:46.891Z,36.50
2018-06-02T04:24:14.482Z,35.47
2018-06-02T04:26:42.045Z,36.57
2018-06-02T04:29:10.452Z,37.90
2018-06-02T04:31:38.760Z,37.70
2018-06-02T04:34:06.288Z,44.57
2018-06-02T04:36:34.146Z,36.03
2018-06-02T04:39:01.795Z,36.07
2018-06-02T04:41:29.316Z,35.83
2018-06-02T04:43:58.063Z,34.83
2018-06-02T04:46:25.562Z,36.77
2018-06-02T04:48:53.838Z,36.57
2018-06-02T04:51:21.377Z,36.53
2018-06-02T04:53:49.690Z,37.20
2018-06-02T04:56:17.409Z,35.50
2018-06-02T04:58:44.934Z,36.17
2018-06-02T05:01:12.769Z,35.67
2018-06-02T05:03:40.316Z,34.33
2018-06-02T05:06:08.096Z,35.47
2018-06-02T05:08:35.731Z,34.00
2018-06-02T05:11:03.202Z,35.53
2018-06-02T05:13:30.773Z,37.20
2018-06-02T05:15:58.320Z,33.37
2018-06-02T05:18:26.767Z,33.73
2018-06-02T05:20:54.317Z,34.37
2018-06-02T05:23:22.829Z,35.43
2018-06-02T05:25:50.392Z,31.87
2018-06-02T05:28:18.657Z,30.87
2018-06-02T05:30:46.182Z,32.13
2018-06-02T05:33:13.919Z,31.00
2018-06-02T05:35:41.438Z,32.07
2018-06-02T05:38:08.994Z,30.90
2018-06-02T05:40:37.424Z,32.07
2018-06-02T05:43:05.072Z,31.80
2018-06-02T05:45:32.583Z,31.43
2018-06-02T05:48:00.280Z,35.50
2018-06-02T05:50:27.808Z,38.37
2018-06-02T05:52:55.360Z,32.67
2018-06-02T05:55:23.005Z,31.07
2018-06-02T05:57:50.541Z,31.97
2018-06-02T06:00:18.261Z,30.27
2018-06-02T06:02:45.848Z,31.03
2018-06-02T06:05:14.134Z,33.97
2018-06-02T06:07:41.683Z,32.97
2018-06-02T06:10:09.284Z,31.83
2018-06-02T06:12:36.806Z,29.50
2018-06-02T06:15:05.205Z,38.70
2018-06-02T06:17:32.730Z,35.47
2018-06-02T06:20:00.361Z,30.90
2018-06-02T06:22:27.922Z,29.97
2018-06-02T06:24:55.518Z,31.50
2018-06-02T06:27:23.046Z,28.93
2018-06-02T06:29:50.640Z,29.97
2018-06-02T06:32:18.267Z,31.03
2018-06-02T06:34:45.865Z,30.77
2018-06-02T06:37:14.874Z,30.67
2018-06-02T06:39:42.413Z,29.50
2018-06-02T06:42:10.720Z,27.83
2018-06-02T06:44:38.266Z,37.20
2018-06-02T06:47:06.414Z,29.93
2018-06-02T06:49:33.951Z,29.60
2018-06-02T06:52:01.678Z,31.60
2018-06-02T06:54:29.302Z,31.63
2018-06-02T06:56:57.114Z,32.13
2018-06-02T06:59:24.644Z,31.42
2018-06-02T07:01:52.380Z,30.27
2018-06-02T07:04:20.100Z,30.90
2018-06-02T07:06:47.659Z,33.33
2018-06-02T07:09:15.221Z,29.67
2018-06-02T07:11:42.750Z,29.87
2018-06-02T07:14:10.526Z,30.35
2018-06-02T07:16:38.600Z,41.25
2018-06-02T07:19:06.385Z,34.15
2018-06-02T07:21:34.013Z,33.90
2018-06-02T07:24:02.318Z,28.90
2018-06-02T07:26:30.294Z,27.55
2018-06-02T07:28:57.889Z,29.87
2018-06-02T07:31:25.889Z,28.50
2018-06-02T07:33:53.426Z,27.75
2018-06-02T07:36:22.033Z,26.02
2018-06-02T07:38:50.657Z,57.85
2018-06-02T07:41:18.278Z,28.87
2018-06-02T07:43:47.179Z,28.30
2018-06-02T07:46:15.664Z,28.98
2018-06-02T07:48:43.385Z,28.62
2018-06-02T07:51:11.129Z,30.98
2018-06-02T07:53:38.749Z,30.45
2018-06-02T07:56:07.078Z,31.23
2018-06-02T07:58:34.626Z,28.35
2018-06-02T08:01:02.337Z,29.35
2018-06-02T08:03:30.720Z,31.23
2018-06-02T08:05:59.021Z,29.83
2018-06-02T08:08:26.612Z,28.60
2018-06-02T08:10:54.162Z,28.83
2018-06-02T08:13:21.760Z,30.17
2018-06-02T08:15:49.309Z,27.90
2018-06-02T08:18:17.279Z,28.02
2018-06-02T08:20:44.816Z,26.75
2018-06-02T08:23:12.445Z,27.65
2018-06-02T08:25:40.093Z,28.92
2018-06-02T08:28:07.798Z,26.87
2018-06-02T08:30:35.315Z,25.17
2018-06-02T08:33:02.853Z,23.10
2018-06-02T08:35:31.291Z,26.85
2018-06-02T08:37:58.823Z,27.08
2018-06-02T08:40:26.402Z,25.90
2018-06-02T08:42:54.079Z,27.45
2018-06-02T08:45:21.975Z,25.92
2018-06-02T08:47:49.496Z,27.20
2018-06-02T08:50:17.135Z,27.62
2018-06-02T08:52:44.693Z,27.83
2018-06-02T08:55:12.291Z,28.42
2018-06-02T08:57:39.873Z,26.55
2018-06-02T09:00:07.525Z,25.75
2018-06-02T09:02:35.283Z,28.00
2018-06-02T09:05:03.428Z,27.13
2018-06-02T09:07:31.136Z,24.20
2018-06-02T09:09:58.680Z,23.65
2018-06-02T09:12:27.123Z,24.73
2018-06-02T09:14:55.548Z,26.20
2018-06-02T09:17:23.290Z,23.87
2018-06-02T09:19:51.446Z,24.20
2018-06-02T09:22:19.100Z,25.55
2018-06-02T09:24:46.678Z,30.85
2018-06-02T09:27:14.338Z,25.08
2018-06-02T09:29:42.509Z,24.70
2018-06-02T09:32:10.796Z,40.30
2018-06-02T09:34:40.302Z,31.25
2018-06-02T09:37:08.135Z,54.22
2018-06-02T09:39:36.589Z,36.42
2018-06-02T09:42:04.208Z,39.88
2018-06-02T09:44:31.752Z,29.52
2018-06-02T09:47:00.263Z,28.62
2018-06-02T09:49:28.120Z,26.87
2018-06-02T09:51:55.658Z,27.52
2018-06-02T09:54:23.355Z,26.73
2018-06-02T09:56:50.882Z,28.58
2018-06-02T09:59:18.783Z,26.75
2018-06-02T10:01:46.320Z,34.38
2018-06-02T10:04:14.727Z,29.80
2018-06-02T10:06:42.364Z,29.23
2018-06-02T10:09:10.141Z,29.50
2018-06-02T10:11:37.731Z,30.67
2018-06-02T10:14:05.312Z,34.42
2018-06-02T10:16:32.814Z,30.30
2018-06-02T10:19:01.262Z,31.20
2018-06-02T10:21:28.793Z,32.33
2018-06-02T10:23:56.365Z,29.92
2018-06-02T10:26:24.013Z,27.13
2018-06-02T10:28:51.648Z,43.28
2018-06-02T10:31:19.250Z,27.25
2018-06-02T10:33:47.768Z,23.62
2018-06-02T10:36:16.112Z,29.87
2018-06-02T10:38:43.711Z,28.17
2018-06-02T10:41:11.875Z,31.00
2018-06-02T10:43:40.277Z,27.92
2018-06-02T10:46:07.803Z,26.83
2018-06-02T10:48:35.381Z,23.65
2018-06-02T10:51:02.940Z,25.58
2018-06-02T10:53:30.483Z,27.15
2018-06-02T10:55:58.019Z,32.10
2018-06-02T10:58:25.612Z,30.88
2018-06-02T11:00:53.244Z,25.95
2018-06-02T11:03:20.756Z,30.60
2018-06-02T11:05:49.447Z,27.17
2018-06-02T11:08:17.733Z,31.67
2018-06-02T11:10:45.307Z,30.40
2018-06-02T11:13:13.780Z,31.23
2018-06-02T11:15:41.423Z,27.02
2018-06-02T11:18:09.837Z,25.42
2018-06-02T11:20:37.393Z,21.15
2018-06-02T11:23:05.016Z,28.70
2018-06-02T11:25:34.157Z,25.15
2018-06-02T11:28:03.183Z,27.37
2018-06-02T11:30:30.779Z,25.70
2018-06-02T11:33:01.908Z,28.12
2018-06-02T11:35:29.545Z,27.00
2018-06-02T11:37:57.237Z,23.02
2018-06-02T11:40:24.877Z,25.50
2018-06-02T11:42:52.698Z,24.85
2018-06-02T11:45:20.251Z,31.30
2018-06-02T11:47:47.789Z,24.50
2018-06-02T11:50:15.335Z,28.30
2018-06-02T11:52:42.934Z,25.37
2018-06-02T11:55:10.489Z,24.27
2018-06-02T11:57:38.540Z,30.12
2018-06-02T12:00:07.109Z,24.85
2018-06-02T12:02:34.783Z,24.23
2018-06-02T12:05:02.317Z,21.65
2018-06-02T12:07:31.309Z,22.80
2018-06-02T12:09:59.046Z,21.58
2018-06-02T12:12:26.677Z,22.42
2018-06-02T12:14:59.043Z,21.90
2018-06-02T12:17:26.742Z,26.77
2018-06-02T12:19:54.370Z,27.83
2018-06-02T12:22:21.907Z,25.02
2018-06-02T12:24:49.506Z,29.58
2018-06-02T12:27:17.574Z,24.25
2018-06-02T12:29:45.261Z,23.45
2018-06-02T12:32:12.781Z,25.85
2018-06-02T12:34:41.171Z,24.60
2018-06-02T12:37:09.469Z,22.40
2018-06-02T12:39:37.029Z,23.65
2018-06-02T12:42:05.772Z,27.25
2018-06-02T12:44:33.293Z,29.52
2018-06-02T12:47:01.775Z,29.17
2018-06-02T12:49:29.306Z,28.87
2018-06-02T12:51:57.635Z,25.58
2018-06-02T12:54:25.244Z,26.45
2018-06-02T12:56:53.562Z,27.37
2018-06-02T12:59:21.885Z,27.15
2018-06-02T13:01:49.454Z,25.83
2018-06-02T13:04:17.750Z,28.90
2018-06-02T13:06:45.409Z,25.40
2018-06-02T13:09:13.027Z,28.55
2018-06-02T13:11:40.565Z,26.05
2018-06-02T13:14:08.220Z,23.73
2018-06-02T13:16:35.913Z,26.23
2018-06-02T13:19:04.437Z,31.52
2018-06-02T13:21:32.038Z,22.13
2018-06-02T13:23:59.857Z,22.92
2018-06-02T13:26:28.261Z,23.58
2018-06-02T13:28:55.821Z,25.23
2018-06-02T13:31:23.336Z,24.70
2018-06-02T13:33:52.347Z,23.52
2018-06-02T13:36:20.070Z,30.30
2018-06-02T13:38:47.584Z,25.17
2018-06-02T13:41:15.098Z,36.58
2018-06-02T13:43:42.627Z,27.80
2018-06-02T13:46:10.133Z,24.05
2018-06-02T13:48:37.637Z,25.98
2018-06-02T13:51:05.157Z,28.17
2018-06-02T13:53:32.713Z,26.77
2018-06-02T13:56:00.998Z,28.52
2018-06-02T13:58:28.996Z,27.80
2018-06-02T14:00:56.541Z,24.73
2018-06-02T14:03:24.062Z,24.67
2018-06-02T14:05:51.728Z,25.48
2018-06-02T14:08:19.252Z,23.70
2018-06-02T14:10:46.769Z,26.00
2018-06-02T14:13:14.338Z,24.12
2018-06-02T14:15:43.152Z,23.98
2018-06-02T14:18:10.689Z,22.42
2018-06-02T14:20:38.350Z,22.92
2018-06-02T14:23:06.617Z,21.52
2018-06-02T14:25:35.048Z,23.15
2018-06-02T14:28:02.797Z,22.17
2018-06-02T14:30:31.284Z,22.17
2018-06-02T14:32:58.908Z,26.40
2018-06-02T14:35:26.810Z,23.92
2018-06-02T14:37:54.631Z,22.33
2018-06-02T14:40:23.065Z,20.35
2018-06-02T14:42:50.631Z,22.42
2018-06-02T14:45:18.137Z,23.12
2018-06-02T14:47:45.828Z,23.70
2018-06-02T14:50:13.400Z,22.33
2018-06-02T14:52:40.929Z,24.95
2018-06-02T14:55:08.709Z,22.33
2018-06-02T14:57:36.356Z,22.62
2018-06-02T15:00:04.057Z,22.65
2018-06-02T15:02:31.656Z,23.38
2018-06-02T15:04:59.243Z,22.33
2018-06-02T15:07:27.065Z,22.08
2018-06-02T15:09:55.230Z,23.73
2018-06-02T15:12:22.762Z,23.00
2018-06-02T15:14:50.272Z,24.27
2018-06-02T15:17:18.669Z,23.50
2018-06-02T15:19:46.814Z,22.37
2018-06-02T15:22:14.505Z,22.08
2018-06-02T15:24:42.031Z,20.80
2018-06-02T15:27:09.630Z,20.50
2018-06-02T15:29:37.174Z,21.25
2018-06-02T15:32:04.712Z,22.60
2018-06-02T15:34:32.241Z,23.70
2018-06-02T15:37:00.061Z,26.37
2018-06-02T15:39:27.785Z,22.75
2018-06-02T15:41:55.425Z,21.15
2018-06-02T15:44:23.929Z,21.12
2018-06-02T15:46:51.451Z,23.65
2018-06-02T15:49:19.927Z,21.10
2018-06-02T15:51:47.455Z,21.67
2018-06-02T15:54:14.987Z,23.95
2018-06-02T15:56:42.507Z,29.50
2018-06-02T15:59:10.783Z,21.60
2018-06-02T16:01:38.378Z,21.65
2018-06-02T16:04:05.949Z,23.65
2018-06-02T16:06:33.622Z,21.25
2018-06-02T16:09:01.220Z,20.92
2018-06-02T16:11:28.751Z,19.42
2018-06-02T16:13:56.255Z,20.80
2018-06-02T16:16:23.766Z,24.50
2018-06-02T16:18:51.308Z,22.20
2018-06-02T16:21:18.849Z,25.70
2018-06-02T16:23:46.438Z,21.75
2018-06-02T16:26:14.048Z,20.70
2018-06-02T16:28:42.894Z,24.08
2018-06-02T16:31:10.459Z,23.58
2018-06-02T16:33:38.798Z,24.27
2018-06-02T16:36:06.718Z,23.27
2018-06-02T16:38:34.586Z,24.05
2018-06-02T16:41:02.165Z,23.90
2018-06-02T16:43:29.883Z,21.58
2018-06-02T16:45:57.437Z,25.52
2018-06-02T16:48:24.953Z,23.23
2018-06-02T16:50:53.389Z,23.02
2018-06-02T16:53:21.136Z,26.45
2018-06-02T16:55:48.883Z,23.00
2018-06-02T16:58:16.575Z,21.70
2018-06-02T17:00:44.143Z,21.30
2018-06-02T17:03:11.870Z,25.65
2018-06-02T17:05:40.358Z,23.80
2018-06-02T17:08:08.814Z,24.08
2018-06-02T17:10:36.479Z,28.15
2018-06-02T17:13:04.028Z,24.05
2018-06-02T17:15:31.754Z,25.40
2018-06-02T17:17:59.666Z,23.17
2018-06-02T17:20:27.505Z,22.95
2018-06-02T17:22:55.097Z,23.02
2018-06-02T17:25:22.693Z,23.90
2018-06-02T17:27:51.019Z,24.30
2018-06-02T17:30:18.982Z,25.17
2018-06-02T17:32:46.581Z,24.57
2018-06-02T17:35:14.218Z,23.63
2018-06-02T17:37:41.772Z,23.37
2018-06-02T17:40:09.359Z,23.33
2018-06-02T17:42:37.114Z,23.70
2018-06-02T17:45:04.690Z,24.47
2018-06-02T17:47:32.281Z,25.83
2018-06-02T17:50:00.055Z,23.67
2018-06-02T17:52:27.578Z,23.93
2018-06-02T17:54:55.118Z,24.20
2018-06-02T17:57:22.705Z,27.00
2018-06-02T17:59:50.218Z,36.57
2018-06-02T18:02:17.772Z,27.20
2018-06-02T18:04:45.315Z,27.73
2018-06-02T18:07:12.869Z,31.27
2018-06-02T18:09:41.313Z,29.00
2018-06-02T18:12:09.081Z,37.60
2018-06-02T18:14:36.598Z,23.73
2018-06-02T18:17:04.136Z,33.33
2018-06-02T18:19:31.919Z,23.03
2018-06-02T18:21:59.562Z,27.33
2018-06-02T18:24:27.181Z,29.00
2018-06-02T18:26:55.195Z,41.37
2018-06-02T18:29:23.121Z,29.77
2018-06-02T18:31:51.572Z,25.77
2018-06-02T18:34:19.406Z,30.37
2018-06-02T18:36:46.920Z,31.60
2018-06-02T18:39:14.461Z,32.87
2018-06-02T18:41:42.184Z,25.13
2018-06-02T18:44:10.097Z,32.23
2018-06-02T18:46:37.694Z,32.77
2018-06-02T18:49:06.021Z,24.93
2018-06-02T18:51:34.137Z,25.20
2018-06-02T18:54:01.658Z,38.87
2018-06-02T18:56:29.497Z,28.13
2018-06-02T18:58:57.258Z,29.57
2018-06-02T19:01:24.792Z,23.07
2018-06-02T19:03:53.124Z,26.80
2018-06-02T19:06:21.072Z,22.57
2018-06-02T19:08:48.822Z,29.10
2018-06-02T19:11:16.657Z,40.87
2018-06-02T19:13:44.750Z,27.07
2018-06-02T19:16:12.293Z,24.63
2018-06-02T19:18:39.868Z,28.93
2018-06-02T19:21:08.260Z,27.20
2018-06-02T19:23:35.790Z,29.70
2018-06-02T19:26:03.291Z,34.63
2018-06-02T19:28:31.046Z,26.47
2018-06-02T19:30:58.693Z,30.77
2018-06-02T19:33:26.211Z,24.97
2018-06-02T19:35:53.753Z,25.13
2018-06-02T19:38:21.371Z,25.17
2018-06-02T19:40:50.261Z,30.13
2018-06-02T19:43:18.906Z,22.73
2018-06-02T19:45:46.478Z,35.23
2018-06-02T19:48:14.021Z,49.07
2018-06-02T19:50:42.600Z,34.00
2018-06-02T19:53:10.240Z,27.47
2018-06-02T19:55:38.065Z,32.70
2018-06-02T19:58:05.603Z,24.67
2018-06-02T20:00:33.900Z,23.83
2018-06-02T20:03:02.096Z,37.03
2018-06-02T20:05:29.792Z,32.70
2018-06-02T20:07:57.457Z,30.47
2018-06-02T20:10:25.684Z,25.53
2018-06-02T20:12:53.187Z,24.83
2018-06-02T20:15:21.365Z,23.93
2018-06-02T20:17:48.943Z,22.67
2018-06-02T20:20:16.681Z,26.77
2018-06-02T20:22:44.209Z,26.17
2018-06-02T20:25:12.502Z,38.87
2018-06-02T20:27:40.114Z,24.77
2018-06-02T20:30:07.809Z,23.60
2018-06-02T20:32:35.334Z,30.33
2018-06-02T20:35:03.076Z,39.10
2018-06-02T20:37:30.591Z,21.30
2018-06-02T20:39:58.114Z,23.23
2018-06-02T20:42:26.151Z,34.43
2018-06-02T20:44:54.129Z,22.43
2018-06-02T20:47:21.679Z,28.97
2018-06-02T20:49:49.799Z,21.10
2018-06-02T20:52:17.435Z,21.83
2018-06-02T20:54:44.986Z,24.23
2018-06-02T20:57:12.520Z,33.83
2018-06-02T20:59:40.943Z,23.63
2018-06-02T21:02:08.608Z,29.37
2018-06-02T21:04:36.642Z,24.40
2018-06-02T21:07:04.968Z,31.00
2018-06-02T21:09:32.511Z,26.10
2018-06-02T21:12:01.334Z,28.03
2018-06-02T21:14:29.314Z,27.37
2018-06-02T21:16:57.455Z,32.30
2018-06-02T21:19:25.061Z,26.87
2018-06-02T21:21:52.809Z,27.43
2018-06-02T21:24:20.331Z,27.53
2018-06-02T21:27:14.989Z,31.57
2018-06-02T21:29:43.350Z,28.40
2018-06-02T21:32:11.704Z,26.77
2018-06-02T21:34:39.962Z,25.60
2018-06-02T21:37:08.190Z,28.93
2018-06-02T21:39:36.563Z,28.67
2018-06-02T21:42:05.613Z,25.17
2018-06-02T21:44:33.879Z,23.53
2018-06-02T21:47:02.279Z,28.50
2018-06-02T21:49:30.657Z,28.43
2018-06-02T21:51:58.999Z,26.90
2018-06-02T21:54:27.234Z,25.13
2018-06-02T21:56:55.419Z,30.40
2018-06-02T21:59:23.731Z,59.07
2018-06-02T22:01:52.064Z,32.40
2018-06-02T22:04:20.285Z,29.83
2018-06-02T22:06:48.528Z,35.73
2018-06-02T22:09:16.904Z,37.77
2018-06-02T22:11:45.301Z,37.23
2018-06-02T22:14:14.291Z,27.87
2018-06-02T22:16:42.931Z,31.57
2018-06-02T22:19:11.142Z,33.50
2018-06-02T22:21:39.461Z,48.57
2018-06-02T22:24:07.739Z,42.27
2018-06-02T22:26:35.928Z,36.17
2018-06-02T22:29:04.625Z,31.83
2018-06-02T22:31:33.151Z,30.87
2018-06-02T22:34:01.401Z,60.43
2018-06-02T22:36:29.741Z,31.37
2018-06-02T22:38:58.122Z,32.17
2018-06-02T22:41:26.402Z,32.20
2018-06-02T22:43:55.055Z,36.47
2018-06-02T22:46:23.261Z,34.90
2018-06-02T22:48:51.677Z,33.27
2018-06-02T22:51:30.080Z,37.40
2018-06-02T22:53:58.437Z,45.37
2018-06-02T22:56:26.803Z,36.77
2018-06-02T22:58:55.425Z,40.77
2018-06-02T23:01:23.742Z,36.53
2018-06-02T23:03:52.223Z,38.53
2018-06-02T23:06:20.445Z,60.50
2018-06-02T23:08:49.120Z,43.60
2018-06-02T23:11:17.410Z,38.33
2018-06-02T23:13:45.591Z,45.20
2018-06-02T23:16:14.085Z,54.63
2018-06-02T23:18:42.539Z,38.23
2018-06-02T23:21:10.989Z,38.43
2018-06-02T23:23:39.212Z,39.97
2018-06-02T23:26:07.393Z,44.50
2018-06-02T23:28:35.605Z,49.50
2018-06-02T23:31:04.071Z,53.50
2018-06-02T23:33:32.310Z,44.40
2018-06-02T23:36:00.511Z,58.43
2018-06-02T23:38:28.702Z,42.60
2018-06-02T23:40:56.832Z,41.97
2018-06-02T23:43:25.244Z,42.33
2018-06-02T23:45:53.429Z,42.30
2018-06-02T23:48:21.954Z,40.53
2018-06-02T23:50:50.146Z,44.60
2018-06-02T23:53:18.415Z,45.47
2018-06-02T23:55:47.433Z,43.57
2018-06-02T23:58:15.701Z,40.50
